Decoded Metar for LFGJ (DOLE in FRANCE) (IATA:DLE) | Meteo·Mobile Aviation Weather
aviador You're here:

LFGJ Decoded Metar

DOLE in FRANCE
Report Time2018-10-18 16:00:00
UTC Time2018-10-18 16:27:40
Flight Rules vfr VFR
Wind040° at 17 kt
W.Decomp.*RWY 05: 16.7 kt HW 3 kt LCW
W.Rank040° ranks 7
Current wind is above 040° avg. (7.0)
Visibility9999 m
Phenomena:N/A
Clouds:N/A
Expected CloudBase > 6,800 ft AGL from Temp-Dew spread
CeilingNone
Temp23°C (ISA +9)
Dew Point06°C (33% RH)
AAT15.9°C
QNH1015 hPa
Density Alt1,785 ft
Elevation643 ft
Report Wrong Elevation
Raw Report
LFGJ 181600Z AUTO 04017KT CAVOK 23/06 Q1015 NOSIG=

Extra information for LFGJ:More info

Metar Taf Metar & Taf Last 4 Metars F.Rules Stats Wind Profile Meteogram Temp Stats Airport Information Weather charts Add Link Nearby VenuesMetar ALERT Operation Metar Decoded Social comments